Terminal Aerodrome Forecast
Issued by NWS Midland/Odessa, TX

Current Version | Previous Version | Text Only | Print | Product List | Glossary On
Versions: 1 2 3 4 5 6 7 8 9 10 11 12 13
313
FTUS44 KMAF 252320
TAFMAF
TAF
KMAF 252320Z 2600/2624 15016G25KT P6SM SCT300
     FM260900 15011KT P6SM BKN020
     FM261500 14015G25KT P6SM SCT030 SCT250=

USA.gov is the U.S. government's official web portal to all federal, state and local government web resources and services.